Time;durP1;ratioP1;P1;durP2;ratioP2;P2;SDS_P1;SDS_P2;PMS_P1;PMS_P2;Temp;Humidity;BMP_temperature;BMP_pressure;BME280_temperature;BME280_humidity;BME280_pressure;Samples;Min_cycle;Max_cycle;Signal;HPM_P1;HPM_P2
2022/06/13 00:00:22;;;;;;;0.00;0.00;;;;;;;15.24;78.79;100689.75;5073902;28;20181;-73
2022/06/13 00:02:48;;;;;;;0.00;0.00;;;;;;;15.37;78.84;100694.97;5073814;28;20178;-73
2022/06/13 00:05:14;;;;;;;0.00;0.00;;;;;;;15.55;78.19;100686.56;5073318;28;20720;-73
2022/06/13 00:07:39;;;;;;;0.00;0.00;;;;;;;15.63;78.16;100693.97;5072721;28;20212;-74
2022/06/13 00:10:05;;;;;;;0.00;0.00;;;;;;;15.79;78.04;100696.88;5073165;28;20179;-74
2022/06/13 00:12:31;;;;;;;0.00;0.00;;;;;;;15.84;77.66;100691.97;5073084;28;20305;-73
2022/06/13 00:14:57;;;;;;;0.00;0.00;;;;;;;15.89;77.61;100690.94;5073157;28;20475;-73
2022/06/13 00:17:22;;;;;;;0.00;0.00;;;;;;;15.75;77.22;100688.47;5072610;28;20174;-76
2022/06/13 00:19:47;;;;;;;0.00;0.00;;;;;;;15.87;77.23;100693.22;5072691;28;20179;-74
2022/06/13 00:22:13;;;;;;;0.00;0.00;;;;;;;15.66;77.04;100699.59;5072836;28;20392;-73
2022/06/13 00:24:39;;;;;;;0.00;0.00;;;;;;;15.71;77.14;100691.13;5072144;28;20214;-74
2022/06/13 00:27:05;;;;;;;0.00;0.00;;;;;;;15.75;77.34;100686.53;5072518;28;20208;-73
2022/06/13 00:29:30;;;;;;;0.00;0.00;;;;;;;15.66;76.53;100688.59;5072350;28;20175;-73
2022/06/13 00:31:55;;;;;;;0.00;0.00;;;;;;;15.68;77.28;100697.31;5072650;28;20201;-74
2022/06/13 00:34:21;;;;;;;0.00;0.00;;;;;;;15.62;76.94;100695.09;5072761;28;20210;-73
2022/06/13 00:36:47;;;;;;;0.00;0.00;;;;;;;15.53;77.34;100694.34;5072569;28;20262;-74
2022/06/13 00:39:12;;;;;;;0.00;0.00;;;;;;;15.44;78.29;100697.19;5072451;28;20567;-73
2022/06/13 00:41:40;;;;;;;0.00;0.00;;;;;;;15.31;79.84;100692.75;5071180;28;20630;-74
2022/06/13 00:44:26;;;;;;;0.00;0.00;;;;;;;15.22;80.92;100689.28;5072571;28;20487;-72
2022/06/13 00:46:52;;;;;;;0.07;0.07;;;;;;;15.13;81.79;100689.34;5072167;28;20831;-74
2022/06/13 00:49:39;;;;;;;0.00;0.00;;;;;;;15.09;81.87;100678.22;5072016;28;20250;-74
2022/06/13 00:52:08;;;;;;;0.00;0.00;;;;;;;15.08;81.72;100686.81;5071933;28;20231;-73
2022/06/13 00:54:36;;;;;;;0.00;0.00;;;;;;;15.14;81.72;100693.72;5072252;28;20170;-74
2022/06/13 00:57:02;;;;;;;0.00;0.00;;;;;;;15.18;81.90;100694.63;5071841;28;20174;-74
2022/06/13 00:59:31;;;;;;;0.00;0.00;;;;;;;15.30;82.28;100691.16;5070496;28;20262;-75
2022/06/13 01:01:58;;;;;;;0.20;0.20;;;;;;;15.35;81.73;100686.25;5072377;28;20171;-74
2022/06/13 01:04:23;;;;;;;0.00;0.00;;;;;;;15.39;81.38;100686.38;5072104;28;20507;-73
2022/06/13 01:06:51;;;;;;;1.90;1.80;;;;;;;15.43;80.56;100687.31;5071776;28;20178;-74
2022/06/13 01:11:16;;;;;;;0.00;0.00;;;;;;;15.36;79.85;100690.63;5071681;28;20174;-73
2022/06/13 01:12:06;;;;;;;0.00;0.00;;;;;;;15.26;79.29;100690.22;5071786;28;20727;-74
2022/06/13 01:14:40;;;;;;;0.00;0.00;;;;;;;15.43;80.43;100693.63;5071911;28;20221;-74
2022/06/13 01:17:53;;;;;;;0.00;0.00;;;;;;;15.53;80.76;100692.41;5071694;28;20345;-74
2022/06/13 01:20:38;;;;;;;0.00;0.00;;;;;;;15.42;80.49;100694.75;5037410;28;20557;-74
2022/06/13 01:23:22;;;;;;;0.00;0.00;;;;;;;15.33;80.94;100696.78;5071783;28;20539;-73
2022/06/13 01:25:59;;;;;;;0.00;0.00;;;;;;;15.32;81.15;100689.66;5070579;28;20225;-73
2022/06/13 01:29:09;;;;;;;0.00;0.00;;;;;;;15.28;81.47;100685.97;5070947;28;20174;-73
2022/06/13 01:31:54;;;;;;;0.00;0.00;;;;;;;15.31;81.28;100690.00;5055509;28;20660;-73
2022/06/13 01:34:34;;;;;;;0.00;0.00;;;;;;;15.34;81.42;100692.91;5071530;28;20210;-73
2022/06/13 01:37:42;;;;;;;0.00;0.00;;;;;;;15.30;81.14;100691.94;5069791;28;20174;-73
2022/06/13 01:40:10;;;;;;;0.00;0.00;;;;;;;15.25;81.32;100692.16;5016679;28;20551;-73
2022/06/13 01:42:59;;;;;;;0.17;0.17;;;;;;;15.20;80.98;100681.38;5071372;28;20280;-75
2022/06/13 01:45:45;;;;;;;0.00;0.00;;;;;;;15.05;81.00;100674.53;5069915;28;20631;-73
2022/06/13 01:48:19;;;;;;;3.03;1.40;;;;;;;14.63;82.12;100675.63;5070367;28;20182;-75
2022/06/13 01:51:01;;;;;;;0.97;0.93;;;;;;;14.26;84.20;100678.84;5070998;28;20169;-73
2022/06/13 01:53:41;;;;;;;0.00;0.00;;;;;;;13.94;86.46;100683.03;5070977;28;20210;-73
2022/06/13 01:56:13;;;;;;;0.00;0.00;;;;;;;13.67;88.25;100673.22;5071123;28;20698;-72
2022/06/13 01:58:44;;;;;;;0.17;0.17;;;;;;;13.59;89.66;100682.28;5070345;28;20496;-73
2022/06/13 02:01:21;;;;;;;0.00;0.00;;;;;;;13.54;90.18;100681.66;5070886;28;20167;-74
2022/06/13 02:03:57;;;;;;;0.00;0.00;;;;;;;13.56;91.08;100673.88;5070240;28;20224;-73
2022/06/13 02:06:29;;;;;;;0.00;0.00;;;;;;;13.51;91.47;100677.63;5070885;28;20560;-73
2022/06/13 02:09:06;;;;;;;0.00;0.00;;;;;;;13.44;91.84;100680.03;5070150;28;20694;-72
2022/06/13 02:11:37;;;;;;;0.00;0.00;;;;;;;13.33;92.17;100678.78;5070939;28;20572;-74
2022/06/13 02:14:15;;;;;;;0.00;0.00;;;;;;;13.30;92.67;100682.94;5070647;28;20206;-74
2022/06/13 02:16:47;;;;;;;0.00;0.00;;;;;;;13.21;92.98;100667.66;5070595;28;20697;-75
2022/06/13 02:19:22;;;;;;;0.00;0.00;;;;;;;13.10;94.06;100672.59;5070750;28;20185;-73
2022/06/13 02:21:53;;;;;;;0.00;0.00;;;;;;;13.02;94.25;100668.75;5070596;28;20182;-73
2022/06/13 02:24:25;;;;;;;0.00;0.00;;;;;;;13.00;95.10;100661.94;5069837;28;20202;-73
2022/06/13 02:26:56;;;;;;;0.10;0.10;;;;;;;12.97;94.93;100657.91;5070582;28;20178;-73
2022/06/13 02:29:28;;;;;;;0.10;0.10;;;;;;;12.88;94.94;100659.88;5069909;28;20304;-73
2022/06/13 02:32:06;;;;;;;0.10;0.10;;;;;;;12.77;95.04;100658.56;5070446;28;20175;-73
2022/06/13 02:34:34;;;;;;;0.87;0.47;;;;;;;12.70;95.64;100663.69;5070656;28;20213;-74
2022/06/13 02:37:09;;;;;;;0.30;0.30;;;;;;;12.64;96.42;100673.22;5070424;28;20189;-72
2022/06/13 02:39:47;;;;;;;0.00;0.00;;;;;;;12.52;96.74;100676.56;5070019;28;20460;-73
2022/06/13 02:42:44;;;;;;;0.10;0.10;;;;;;;12.37;97.99;100683.28;5070344;28;20188;-73
2022/06/13 02:45:18;;;;;;;0.00;0.00;;;;;;;12.27;98.73;100672.59;5045451;28;20307;-73
2022/06/13 02:48:11;;;;;;;0.00;0.00;;;;;;;12.22;99.86;100664.53;5069691;28;20187;-73
2022/06/13 02:50:47;;;;;;;0.00;0.00;;;;;;;12.20;100.00;100675.00;5041431;28;20247;-73
2022/06/13 02:53:33;;;;;;;0.00;0.00;;;;;;;12.13;100.00;100677.38;5070158;28;20425;-73
2022/06/13 02:56:04;;;;;;;0.10;0.10;;;;;;;12.07;100.00;100675.91;5070303;28;20170;-73
2022/06/13 02:58:35;;;;;;;1.70;1.63;;;;;;;12.03;100.00;100669.47;5069595;28;20649;-73
2022/06/13 03:01:19;;;;;;;0.00;0.00;;;;;;;12.04;100.00;100663.69;5070130;28;20541;-73
2022/06/13 03:04:11;;;;;;;0.17;0.17;;;;;;;12.04;100.00;100674.63;5070239;28;20180;-72
2022/06/13 03:06:39;;;;;;;0.00;0.00;;;;;;;12.09;100.00;100679.16;5070305;28;20171;-73
2022/06/13 03:09:11;;;;;;;0.00;0.00;;;;;;;12.11;100.00;100672.22;5069739;28;20190;-73
2022/06/13 03:11:55;;;;;;;0.93;0.93;;;;;;;12.06;100.00;100671.56;5069973;28;20541;-73
2022/06/13 03:14:23;;;;;;;0.00;0.00;;;;;;;12.04;100.00;100669.16;5070238;28;20237;-73
2022/06/13 03:17:00;;;;;;;0.60;0.60;;;;;;;12.13;100.00;100677.38;5073301;28;20672;-73
2022/06/13 03:19:35;;;;;;;0.00;0.00;;;;;;;12.13;100.00;100672.72;5074032;28;20518;-73
2022/06/13 03:22:16;;;;;;;0.60;0.60;;;;;;;12.13;100.00;100675.44;5074032;28;20174;-73
2022/06/13 03:24:46;;;;;;;0.00;0.00;;;;;;;12.15;100.00;100672.41;5073207;28;20175;-72
2022/06/13 03:27:28;;;;;;;0.00;0.00;;;;;;;12.24;100.00;100686.13;5073661;28;20220;-74
2022/06/13 03:30:07;;;;;;;0.27;0.27;;;;;;;12.33;100.00;100687.00;5073583;28;20556;-73
2022/06/13 03:32:38;;;;;;;0.20;0.20;;;;;;;12.42;100.00;100687.81;5073742;28;20181;-73
2022/06/13 03:35:09;;;;;;;1.70;0.83;;;;;;;12.49;100.00;100708.16;5073893;28;20204;-72
2022/06/13 03:37:46;;;;;;;0.00;0.00;;;;;;;12.56;100.00;100698.66;5073089;28;20209;-74
2022/06/13 03:40:18;;;;;;;0.20;0.20;;;;;;;12.58;100.00;100705.41;5073599;28;20198;-73
2022/06/13 03:42:54;;;;;;;0.00;0.00;;;;;;;12.66;100.00;100714.81;5073691;28;20661;-73
2022/06/13 03:45:56;;;;;;;1.33;1.33;;;;;;;12.74;100.00;100727.75;5073884;28;20174;-73
2022/06/13 03:48:35;;;;;;;0.27;0.20;;;;;;;12.78;100.00;100720.50;5053586;28;20261;-73
2022/06/13 03:51:16;;;;;;;2.93;1.87;;;;;;;12.78;100.00;100721.28;5073395;28;20182;-74
2022/06/13 03:53:59;;;;;;;0.10;0.10;;;;;;;12.77;100.00;100727.09;5073487;28;20229;-73
2022/06/13 03:56:31;;;;;;;0.07;0.07;;;;;;;12.80;100.00;100734.69;5073395;28;20174;-73
2022/06/13 03:59:18;;;;;;;0.50;0.30;;;;;;;12.82;100.00;100735.97;5072945;28;20265;-73
2022/06/13 04:01:52;;;;;;;6.33;1.87;;;;;;;12.89;100.00;100732.78;5073168;28;20171;-73
2022/06/13 04:04:24;;;;;;;0.43;0.43;;;;;;;12.95;100.00;100725.19;5073468;28;20681;-72
2022/06/13 04:06:50;;;;;;;0.00;0.00;;;;;;;13.00;100.00;100723.09;5072859;28;20170;-74
2022/06/13 04:09:22;;;;;;;0.23;0.23;;;;;;;13.10;100.00;100722.00;5072874;28;20171;-73
2022/06/13 04:12:08;;;;;;;0.70;0.70;;;;;;;13.18;100.00;100712.16;5073023;28;20174;-73
2022/06/13 04:14:54;;;;;;;0.13;0.13;;;;;;;13.23;100.00;100721.06;5072531;28;20600;-73
2022/06/13 04:17:35;;;;;;;0.17;0.17;;;;;;;13.26;100.00;100730.56;5072705;28;20227;-73
2022/06/13 04:20:30;;;;;;;0.83;0.83;;;;;;;13.30;100.00;100715.06;5072978;28;20269;-73
2022/06/13 04:23:12;;;;;;;0.00;0.00;;;;;;;13.33;100.00;100709.78;5071611;28;20228;-73
2022/06/13 04:26:01;;;;;;;0.23;0.23;;;;;;;13.31;97.97;100705.75;5072119;28;20578;-73
2022/06/13 04:29:00;;;;;;;0.90;0.90;;;;;;;13.29;97.14;100707.97;5071504;28;20657;-73
2022/06/13 04:31:28;;;;;;;1.07;1.07;;;;;;;13.25;96.47;100709.75;5072771;28;20170;-73
2022/06/13 04:34:07;;;;;;;0.63;0.53;;;;;;;13.24;95.78;100716.38;5072606;28;20343;-73
2022/06/13 04:36:34;;;;;;;0.67;0.67;;;;;;;13.23;95.95;100709.28;5072769;28;20174;-75
2022/06/13 04:39:04;;;;;;;0.97;0.97;;;;;;;13.21;95.44;100715.09;5072313;28;20179;-72
2022/06/13 04:41:36;;;;;;;28.47;1.17;;;;;;;13.19;95.26;100714.63;5072451;28;20174;-73
2022/06/13 04:44:04;;;;;;;0.50;0.50;;;;;;;13.20;95.71;100718.16;5072574;28;20178;-73
2022/06/13 04:46:31;;;;;;;0.07;0.07;;;;;;;13.19;96.27;100711.88;5072265;28;20186;-73
2022/06/13 04:49:05;;;;;;;0.43;0.43;;;;;;;13.16;95.82;100717.94;5072014;28;20633;-73
2022/06/13 04:51:37;;;;;;;0.57;0.57;;;;;;;13.20;95.84;100710.75;5071049;28;20200;-76
2022/06/13 04:54:06;;;;;;;0.00;0.00;;;;;;;13.21;95.93;100704.13;5072316;28;20244;-75
2022/06/13 04:56:33;;;;;;;0.57;0.50;;;;;;;13.21;95.19;100712.34;5072097;28;20270;-74
2022/06/13 04:59:00;;;;;;;0.00;0.00;;;;;;;13.21;95.27;100706.88;5071744;28;20188;-73
2022/06/13 05:01:33;;;;;;;0.10;0.10;;;;;;;13.23;95.86;100709.28;5072182;28;20202;-72
2022/06/13 05:04:01;;;;;;;0.73;0.37;;;;;;;13.24;96.21;100711.69;5072407;28;20182;-73
2022/06/13 05:06:39;;;;;;;1.50;1.40;;;;;;;13.21;96.13;100711.53;5072052;28;20553;-73
2022/06/13 05:09:15;;;;;;;0.40;0.40;;;;;;;13.22;96.17;100715.91;5071615;28;20174;-73
2022/06/13 05:12:04;;;;;;;0.60;0.60;;;;;;;13.27;96.27;100718.47;5070604;28;20200;-73
2022/06/13 05:14:29;;;;;;;0.00;0.00;;;;;;;13.30;96.39;100723.31;5071859;28;20748;-74
2022/06/13 05:16:59;;;;;;;0.00;0.00;;;;;;;13.35;96.66;100725.91;5071488;28;20260;-74
2022/06/13 05:19:31;;;;;;;0.63;0.63;;;;;;;13.31;95.69;100730.44;5071445;28;20236;-73
2022/06/13 05:22:18;;;;;;;1.47;1.47;;;;;;;13.34;95.96;100729.78;5071727;28;20224;-73
2022/06/13 05:25:20;;;;;;;3.77;2.10;;;;;;;13.35;95.58;100728.66;5070129;28;20174;-73
2022/06/13 05:27:45;;;;;;;0.47;0.40;;;;;;;13.38;95.87;100726.06;5070940;28;20197;-73
2022/06/13 05:30:14;;;;;;;5.13;1.20;;;;;;;13.36;95.97;100735.75;5071546;28;20258;-73
2022/06/13 05:32:39;;;;;;;3.07;1.60;;;;;;;13.42;96.38;100741.88;5071465;28;20171;-73
2022/06/13 05:35:05;;;;;;;0.40;0.40;;;;;;;13.36;95.89;100725.59;5071670;28;20173;-74
2022/06/13 05:37:31;;;;;;;1.57;1.47;;;;;;;13.38;95.65;100723.31;5070754;28;20174;-73
2022/06/13 05:39:57;;;;;;;7.93;2.53;;;;;;;13.41;95.95;100727.34;5070732;28;20486;-75
2022/06/13 05:42:22;;;;;;;7.70;1.80;;;;;;;13.45;95.77;100733.00;5071183;28;20491;-73
2022/06/13 05:44:47;;;;;;;2.17;1.10;;;;;;;13.46;95.59;100740.94;5071457;28;20166;-73
2022/06/13 05:47:19;;;;;;;1.50;1.40;;;;;;;13.48;94.76;100733.19;5071206;28;20186;-73
2022/06/13 05:49:45;;;;;;;2.57;0.40;;;;;;;13.52;94.15;100728.66;5070825;28;20489;-74
2022/06/13 05:52:11;;;;;;;1.67;1.57;;;;;;;13.56;93.19;100740.59;5071178;28;20205;-73
2022/06/13 05:54:37;;;;;;;0.10;0.10;;;;;;;13.65;93.77;100733.16;5071163;28;20243;-73
2022/06/13 05:57:03;;;;;;;0.00;0.00;;;;;;;13.70;92.87;100737.66;5070817;28;20180;-73
2022/06/13 05:59:29;;;;;;;0.27;0.27;;;;;;;13.74;91.25;100746.06;5070629;28;20181;-74
2022/06/13 06:01:54;;;;;;;0.00;0.00;;;;;;;13.80;91.86;100748.31;5071134;28;20273;-73
2022/06/13 06:04:19;;;;;;;0.00;0.00;;;;;;;13.86;92.28;100754.44;5070973;28;20559;-73
2022/06/13 06:06:45;;;;;;;0.30;0.30;;;;;;;13.90;93.00;100749.94;5070723;28;20179;-75
2022/06/13 06:09:13;;;;;;;0.10;0.10;;;;;;;13.95;93.06;100750.56;5070422;28;20194;-73
2022/06/13 06:11:38;;;;;;;0.20;0.20;;;;;;;14.02;92.48;100743.75;5070721;28;20570;-75
2022/06/13 06:14:03;;;;;;;0.00;0.00;;;;;;;14.12;91.91;100757.13;5070874;28;20301;-73
2022/06/13 06:16:29;;;;;;;0.00;0.00;;;;;;;14.14;90.17;100757.63;5070918;28;20190;-73
2022/06/13 06:18:55;;;;;;;3.33;0.67;;;;;;;14.21;89.51;100752.44;5070048;28;20618;-74
2022/06/13 06:21:21;;;;;;;0.20;0.17;;;;;;;14.28;89.62;100752.72;5070640;28;20177;-74
2022/06/13 06:23:46;;;;;;;0.10;0.10;;;;;;;14.39;89.85;100753.97;5069146;28;20250;-74
2022/06/13 06:26:15;;;;;;;1.70;1.60;;;;;;;14.42;88.92;100763.50;5070516;28;20186;-74
2022/06/13 06:28:40;;;;;;;0.10;0.10;;;;;;;14.50;89.18;100758.03;5069931;28;20644;-72
2022/06/13 06:31:06;;;;;;;0.03;0.03;;;;;;;14.52;89.11;100764.00;5070455;28;20178;-73
2022/06/13 06:33:34;;;;;;;0.10;0.10;;;;;;;14.54;88.36;100764.47;5070535;28;20206;-73
2022/06/13 06:35:59;;;;;;;1.23;1.13;;;;;;;14.63;88.91;100767.19;5070990;28;20175;-73
2022/06/13 06:38:26;;;;;;;12.47;5.17;;;;;;;14.59;88.53;100774.47;5070344;28;20507;-73
2022/06/13 06:40:52;;;;;;;0.83;0.83;;;;;;;14.63;88.54;100771.88;5070381;28;20182;-73
2022/06/13 06:43:18;;;;;;;0.00;0.00;;;;;;;14.69;89.07;100774.09;5070609;28;20178;-74
2022/06/13 06:45:44;;;;;;;0.00;0.00;;;;;;;14.82;89.38;100772.25;5070475;28;20538;-73
2022/06/13 06:48:13;;;;;;;2.77;2.13;;;;;;;14.91;88.44;100773.03;5069739;28;20281;-73
2022/06/13 06:50:41;;;;;;;0.47;0.47;;;;;;;14.96;87.43;100772.84;5069969;28;20185;-73
2022/06/13 06:53:06;;;;;;;1.70;1.60;;;;;;;14.99;85.94;100769.41;5070228;28;20194;-73
2022/06/13 07:01:03;;;;;;;2.07;1.97;;;;;;;14.82;85.37;100770.31;5070334;28;20181;-73
2022/06/13 07:03:29;;;;;;;1.57;1.13;;;;;;;14.82;85.44;100775.00;5070177;28;20274;-73
2022/06/13 07:05:54;;;;;;;1.50;1.40;;;;;;;14.69;85.83;100778.78;5070153;28;20253;-74
2022/06/13 07:08:19;;;;;;;0.73;0.53;;;;;;;14.61;85.23;100776.88;5069510;28;20667;-73
2022/06/13 07:10:49;;;;;;;0.57;0.57;;;;;;;14.74;85.81;100784.09;5070407;28;20175;-73
2022/06/13 07:13:16;;;;;;;2.27;1.17;;;;;;;14.79;84.72;100768.25;5070103;28;20194;-73
2022/06/13 07:15:42;;;;;;;1.07;0.97;;;;;;;14.81;83.41;100778.91;5069918;28;20215;-73
2022/06/13 07:18:08;;;;;;;2.23;1.10;;;;;;;14.78;83.52;100772.13;5069446;28;20182;-73
2022/06/13 07:20:34;;;;;;;0.00;0.00;;;;;;;14.87;83.72;100777.56;5069981;28;20190;-74
2022/06/13 07:22:59;;;;;;;2.60;0.87;;;;;;;14.89;82.84;100775.28;5070145;28;20175;-73
2022/06/13 07:25:27;;;;;;;1.63;1.53;;;;;;;14.89;82.40;100764.28;5067216;28;20179;-73
2022/06/13 07:27:53;;;;;;;9.23;1.07;;;;;;;14.94;82.51;100758.59;5069215;28;20745;-73
2022/06/13 07:30:24;;;;;;;0.33;0.33;;;;;;;14.94;82.52;100764.09;5069619;28;20251;-73
2022/06/13 07:32:50;;;;;;;0.07;0.07;;;;;;;15.08;82.25;100758.34;5069891;28;20323;-73
2022/06/13 07:35:19;;;;;;;1.07;1.03;;;;;;;15.28;81.82;100765.00;5069773;28;20224;-73
2022/06/13 07:40:30;;;;;;;0.57;0.57;;;;;;;15.47;76.39;100760.63;5069724;28;20702;-74
2022/06/13 07:43:00;;;;;;;0.50;0.50;;;;;;;15.64;76.27;100767.19;5070176;28;20179;-74
2022/06/13 07:45:28;;;;;;;0.00;0.00;;;;;;;15.65;74.98;100769.63;5069954;28;20178;-72
2022/06/13 07:47:54;;;;;;;2.30;1.20;;;;;;;15.83;76.38;100764.75;5069001;28;20894;-75
2022/06/13 07:50:22;;;;;;;1.70;1.10;;;;;;;15.97;75.42;100772.72;5069608;28;20537;-73
2022/06/13 07:52:49;;;;;;;4.80;2.90;;;;;;;16.05;75.08;100771.81;5069592;28;20194;-74
2022/06/13 07:55:15;;;;;;;3.30;1.13;;;;;;;16.05;74.34;100777.31;5069947;28;20163;-73
2022/06/13 07:57:40;;;;;;;2.90;1.03;;;;;;;16.24;74.29;100779.56;5069173;28;20573;-74
2022/06/13 08:00:08;;;;;;;1.93;1.83;;;;;;;16.18;73.16;100780.91;5069592;28;20174;-74
2022/06/13 08:02:34;;;;;;;0.47;0.47;;;;;;;16.30;73.85;100776.25;5070721;28;20537;-73
2022/06/13 08:05:00;;;;;;;6.33;1.40;;;;;;;16.48;72.65;100784.31;5073156;28;20167;-73
2022/06/13 08:07:26;;;;;;;1.90;1.20;;;;;;;16.43;71.66;100782.59;5072619;28;20190;-73
2022/06/13 08:09:51;;;;;;;3.00;0.57;;;;;;;16.43;71.90;100782.59;5072855;28;20167;-74
2022/06/13 08:12:19;;;;;;;1.03;0.90;;;;;;;16.62;71.26;100790.31;5073163;28;20257;-74
2022/06/13 08:14:47;;;;;;;1.03;0.97;;;;;;;16.66;69.45;100781.00;5072992;28;20217;-74
2022/06/13 08:17:16;;;;;;;0.93;0.87;;;;;;;16.61;69.46;100777.66;5072727;28;20167;-73
2022/06/13 08:19:41;;;;;;;0.13;0.13;;;;;;;16.53;70.23;100773.88;5072441;28;20531;-73
2022/06/13 08:22:07;;;;;;;0.77;0.53;;;;;;;16.55;70.00;100785.38;5072773;28;20177;-75
2022/06/13 08:24:33;;;;;;;1.20;0.13;;;;;;;16.48;69.41;100787.06;5071592;28;20182;-73
2022/06/13 08:26:58;;;;;;;0.50;0.50;;;;;;;16.39;69.88;100783.63;5072528;28;20201;-73
2022/06/13 08:29:24;;;;;;;3.30;1.70;;;;;;;16.21;69.18;100772.00;5072308;28;20170;-74
2022/06/13 08:31:49;;;;;;;0.57;0.57;;;;;;;16.21;69.36;100783.00;5072814;28;20625;-74
2022/06/13 08:34:14;;;;;;;1.20;0.60;;;;;;;16.24;68.57;100779.56;5072451;28;20427;-73
2022/06/13 08:36:40;;;;;;;9.13;0.93;;;;;;;16.42;68.69;100778.22;5071133;28;20177;-74
2022/06/13 08:39:05;;;;;;;7.33;1.30;;;;;;;16.76;68.48;100788.03;5072223;28;20297;-72
2022/06/13 08:41:41;;;;;;;0.23;0.17;;;;;;;17.02;66.64;100784.13;5072581;28;20629;-73
2022/06/13 08:44:20;;;;;;;2.10;1.40;;;;;;;17.21;65.19;100770.53;5072596;28;20165;-74
2022/06/13 08:47:19;;;;;;;1.90;1.40;;;;;;;16.87;63.91;100788.41;5072118;28;20265;-73
2022/06/13 08:49:49;;;;;;;7.07;1.77;;;;;;;16.73;65.41;100779.66;5072166;28;20269;-73
2022/06/13 08:52:27;;;;;;;0.27;0.27;;;;;;;16.65;66.31;100779.41;5072584;28;20170;-73
2022/06/13 08:55:01;;;;;;;0.50;0.50;;;;;;;16.88;64.73;100777.00;5070931;28;20542;-73
2022/06/13 08:57:29;;;;;;;4.30;0.63;;;;;;;16.82;65.13;100783.91;5070604;28;20170;-73
2022/06/13 09:00:05;;;;;;;7.97;1.27;;;;;;;16.60;64.98;100776.84;5070926;28;20171;-74
2022/06/13 09:03:32;;;;;;;0.20;0.20;;;;;;;16.66;64.86;100780.22;5072217;28;20180;-73
2022/06/13 09:06:20;;;;;;;1.20;0.73;;;;;;;16.81;64.05;100789.78;5038412;28;20643;-73
2022/06/13 09:09:04;;;;;;;0.00;0.00;;;;;;;16.74;62.71;100786.78;5070116;28;20214;-73
2022/06/13 09:11:38;;;;;;;0.17;0.17;;;;;;;16.72;62.99;100789.88;5071944;28;20184;-73
2022/06/13 09:14:12;;;;;;;0.73;0.37;;;;;;;16.72;62.60;100781.59;5071694;28;20209;-73
2022/06/13 09:16:42;;;;;;;0.93;0.77;;;;;;;17.11;62.24;100785.63;5071650;28;20735;-73
2022/06/13 09:19:22;;;;;;;2.47;1.03;;;;;;;17.26;61.15;100775.81;5071570;28;20216;-73
2022/06/13 09:22:03;;;;;;;0.10;0.10;;;;;;;17.26;59.55;100778.59;5071828;28;20236;-74
2022/06/13 09:24:37;;;;;;;0.63;0.40;;;;;;;17.18;60.00;100774.78;5070474;28;20182;-73
2022/06/13 09:27:24;;;;;;;0.80;0.80;;;;;;;17.22;60.35;100775.72;5071826;28;20206;-73
2022/06/13 09:30:04;;;;;;;0.50;0.50;;;;;;;17.56;60.84;100773.56;5071220;28;20188;-74
2022/06/13 09:32:35;;;;;;;0.57;0.43;;;;;;;17.76;59.53;100767.06;5071537;28;20213;-74
2022/06/13 09:35:23;;;;;;;2.93;1.03;;;;;;;17.69;60.20;100775.16;5071535;28;20178;-73
2022/06/13 09:37:56;;;;;;;0.87;0.37;;;;;;;17.72;60.21;100770.88;5070963;28;20472;-73
2022/06/13 09:40:53;;;;;;;0.10;0.10;;;;;;;17.71;60.06;100772.84;5071217;28;20656;-74
2022/06/13 09:43:27;;;;;;;0.60;0.60;;;;;;;17.99;59.04;100778.38;5071790;28;20265;-73
2022/06/13 09:45:56;;;;;;;0.40;0.40;;;;;;;17.89;57.48;100762.28;5071532;28;20174;-73
2022/06/13 09:48:41;;;;;;;0.07;0.07;;;;;;;17.70;57.75;100762.94;5069235;28;20556;-74
2022/06/13 09:51:29;;;;;;;1.23;1.13;;;;;;;17.56;57.31;100776.31;5071143;28;20190;-73
2022/06/13 09:54:19;;;;;;;1.23;0.67;;;;;;;17.80;56.58;100767.97;5069685;28;20210;-74
2022/06/13 09:57:00;;;;;;;1.00;0.87;;;;;;;17.88;55.48;100768.16;5070866;28;20695;-73
2022/06/13 09:59:48;;;;;;;0.40;0.40;;;;;;;17.73;56.70;100778.00;5070706;28;20208;-73
2022/06/13 10:02:41;;;;;;;0.87;0.80;;;;;;;17.63;56.49;100768.22;5070988;28;20532;-74
2022/06/13 10:05:21;;;;;;;0.83;0.77;;;;;;;17.53;56.29;100774.25;5070968;28;20648;-73
2022/06/13 10:08:07;;;;;;;0.23;0.23;;;;;;;17.37;54.43;100788.00;5070355;28;20179;-73
2022/06/13 10:10:48;;;;;;;0.70;0.70;;;;;;;17.02;56.05;100817.25;5070948;28;20166;-73
2022/06/13 10:13:19;;;;;;;0.07;0.07;;;;;;;16.13;60.64;100817.78;5070910;28;20205;-73
2022/06/13 10:16:12;;;;;;;0.23;0.20;;;;;;;15.56;65.14;100817.59;5070763;28;20621;-74
2022/06/13 10:18:52;;;;;;;0.20;0.20;;;;;;;14.96;68.18;100829.81;5070224;28;20178;-73
2022/06/13 10:21:45;;;;;;;0.00;0.00;;;;;;;14.55;70.58;100829.31;5070789;28;20228;-74
2022/06/13 10:24:33;;;;;;;0.00;0.00;;;;;;;14.43;73.11;100823.66;5069061;28;20608;-73
2022/06/13 10:27:30;;;;;;;0.00;0.00;;;;;;;14.30;73.88;100828.22;5070243;28;20268;-73
2022/06/13 10:29:55;;;;;;;0.10;0.10;;;;;;;14.21;72.56;100818.41;5070529;28;20530;-74
2022/06/13 10:32:30;;;;;;;0.00;0.00;;;;;;;14.24;73.37;100807.56;5070635;28;20177;-72
2022/06/13 10:35:11;;;;;;;0.10;0.10;;;;;;;14.58;72.32;100798.41;5070422;28;20220;-73
2022/06/13 10:37:55;;;;;;;0.23;0.23;;;;;;;14.86;71.20;100795.22;5070052;28;20578;-73
2022/06/13 10:40:21;;;;;;;0.00;0.00;;;;;;;15.44;69.50;100785.28;5070391;28;20181;-73
2022/06/13 10:42:47;;;;;;;0.07;0.07;;;;;;;15.61;66.57;100784.38;5070451;28;20178;-73
2022/06/13 10:45:15;;;;;;;0.00;0.00;;;;;;;15.76;64.54;100789.25;5070567;28;20221;-73
2022/06/13 10:48:00;;;;;;;0.00;0.00;;;;;;;16.13;65.68;100790.22;5069612;28;20186;-75
2022/06/13 10:50:32;;;;;;;0.00;0.00;;;;;;;16.15;64.17;100801.72;5070363;28;20200;-75
2022/06/13 10:53:06;;;;;;;0.23;0.20;;;;;;;16.01;63.77;100810.28;5070194;28;20210;-76
2022/06/13 10:55:39;;;;;;;0.20;0.20;;;;;;;15.72;66.94;100830.47;5070275;28;20198;-73
2022/06/13 10:58:16;;;;;;;1.50;1.33;;;;;;;15.46;71.06;100827.06;5069550;28;20181;-75
2022/06/13 11:01:02;;;;;;;0.20;0.20;;;;;;;14.94;77.12;100840.34;5070257;28;20245;-75
2022/06/13 11:03:28;;;;;;;2.57;1.70;;;;;;;14.56;81.27;100833.69;5070067;28;20410;-74
2022/06/13 11:06:02;;;;;;;0.00;0.00;;;;;;;14.39;85.83;100844.69;5070077;28;20167;-74
2022/06/13 11:08:29;;;;;;;0.07;0.07;;;;;;;14.21;89.48;100834.88;5069553;28;20177;-73
2022/06/13 11:11:01;;;;;;;0.00;0.00;;;;;;;14.15;91.40;100836.16;5070234;28;20170;-74
2022/06/13 11:13:37;;;;;;;0.00;0.00;;;;;;;14.15;91.63;100833.41;5070122;28;20249;-74
2022/06/13 11:24:43;;;;;;;0.40;0.33;;;;;;;14.28;85.56;100829.69;5068896;28;20678;-76
2022/06/13 11:27:41;;;;;;;0.67;0.60;;;;;;;14.20;81.93;100833.28;5069746;28;20210;-74
2022/06/13 11:30:25;;;;;;;0.20;0.10;;;;;;;14.22;80.11;100836.50;5069947;28;20178;-73
2022/06/13 11:33:13;;;;;;;0.40;0.40;;;;;;;14.21;81.37;100838.44;5069903;28;20170;-74
2022/06/13 11:35:46;;;;;;;0.27;0.27;;;;;;;14.20;82.33;100836.81;5069976;28;20185;-74
2022/06/13 11:39:04;;;;;;;0.90;0.73;;;;;;;14.09;80.08;100846.53;5070338;28;20609;-74
2022/06/13 11:41:32;;;;;;;0.83;0.70;;;;;;;14.08;79.92;100857.84;5048191;28;20185;-73
2022/06/13 11:43:58;;;;;;;0.10;0.10;;;;;;;14.11;79.48;100849.75;5073600;28;20167;-74
2022/06/13 11:46:23;;;;;;;0.27;0.27;;;;;;;14.18;79.29;100855.59;5073356;28;20185;-74
2022/06/13 11:48:50;;;;;;;0.50;0.50;;;;;;;14.26;80.29;100856.69;5072926;28;20185;-74
2022/06/13 11:51:22;;;;;;;0.70;0.70;;;;;;;14.39;79.77;100874.13;5073651;28;20618;-74
2022/06/13 11:53:49;;;;;;;0.10;0.10;;;;;;;14.52;78.69;100868.47;5073480;28;20287;-73
2022/06/13 11:56:24;;;;;;;0.20;0.10;;;;;;;14.98;78.33;100866.84;5073392;28;20194;-73
2022/06/13 11:58:52;;;;;;;0.00;0.00;;;;;;;15.26;76.28;100874.66;5072627;28;20629;-75
2022/06/13 12:01:28;;;;;;;0.20;0.10;;;;;;;15.20;74.28;100876.00;5073730;28;20193;-74
2022/06/13 12:04:18;;;;;;;0.23;0.23;;;;;;;15.31;72.67;100875.25;5073219;28;20181;-75
2022/06/13 12:06:50;;;;;;;0.10;0.10;;;;;;;15.63;73.38;100870.25;5065218;28;20545;-75
2022/06/13 12:09:21;;;;;;;0.00;0.00;;;;;;;15.88;71.57;100876.69;5072796;28;20166;-75
2022/06/13 12:11:54;;;;;;;0.00;0.00;;;;;;;16.01;70.08;100862.63;5073152;28;20248;-75